createdAt,value
2022-10-10T00:00:50.200Z,8.30
2022-10-10T00:03:18.641Z,8.30
2022-10-10T00:05:46.762Z,8.30
2022-10-10T00:08:14.490Z,8.30
2022-10-10T00:10:42.169Z,8.30
2022-10-10T00:13:09.893Z,8.20
2022-10-10T00:15:38.908Z,8.20
2022-10-10T00:18:06.788Z,8.20
2022-10-10T00:20:34.610Z,8.20
2022-10-10T00:23:02.319Z,8.20
2022-10-10T00:25:30.104Z,8.20
2022-10-10T00:28:01.426Z,8.20
2022-10-10T00:30:29.232Z,8.20
2022-10-10T00:32:59.100Z,8.20
2022-10-10T00:35:27.185Z,8.20
2022-10-10T00:37:54.972Z,8.20
2022-10-10T00:40:23.997Z,8.20
2022-10-10T00:42:52.330Z,8.20
2022-10-10T00:45:32.938Z,8.20
2022-10-10T00:48:08.037Z,8.20
2022-10-10T00:50:39.850Z,8.30
2022-10-10T00:53:09.219Z,8.30
2022-10-10T00:55:37.570Z,8.20
2022-10-10T00:58:06.217Z,8.30
2022-10-10T01:00:33.961Z,8.30
2022-10-10T01:03:03.033Z,8.30
2022-10-10T01:05:31.435Z,8.30
2022-10-10T01:07:59.499Z,8.30
2022-10-10T01:10:27.574Z,8.30
2022-10-10T01:13:08.245Z,8.30
2022-10-10T01:15:48.894Z,8.30
2022-10-10T01:18:26.122Z,8.30
2022-10-10T01:21:11.245Z,8.30
2022-10-10T01:24:17.743Z,8.30
2022-10-10T01:27:18.027Z,8.30
2022-10-10T01:29:52.408Z,8.30
2022-10-10T01:32:26.768Z,8.20
2022-10-10T01:35:04.226Z,8.30
2022-10-10T01:37:40.408Z,8.30
2022-10-10T01:40:14.181Z,8.30
2022-10-10T01:42:49.461Z,8.20
2022-10-10T01:45:18.843Z,8.30
2022-10-10T01:47:46.887Z,8.30
2022-10-10T01:50:20.164Z,8.30
2022-10-10T01:52:59.014Z,8.30
2022-10-10T01:55:38.181Z,8.30
2022-10-10T01:58:19.009Z,8.30
2022-10-10T02:00:53.376Z,8.30
2022-10-10T02:03:25.869Z,8.30
2022-10-10T02:05:57.194Z,8.20
2022-10-10T02:08:33.670Z,8.30
2022-10-10T02:11:04.073Z,8.30
2022-10-10T02:13:36.441Z,8.30
2022-10-10T02:19:03.363Z,8.20
2022-10-10T02:21:32.518Z,8.30
2022-10-10T02:24:05.106Z,8.20
2022-10-10T02:26:34.303Z,8.20
2022-10-10T02:29:08.133Z,8.20
2022-10-10T02:31:40.627Z,8.20
2022-10-10T02:34:14.083Z,8.20
2022-10-10T02:36:45.849Z,8.20
2022-10-10T02:39:15.159Z,8.20
2022-10-10T02:41:45.194Z,8.10
2022-10-10T02:44:14.329Z,8.10
2022-10-10T02:46:42.348Z,8.10
2022-10-10T02:49:12.473Z,8.10
2022-10-10T02:51:40.605Z,8.10
2022-10-10T02:54:08.407Z,8.10
2022-10-10T02:56:36.093Z,8.00
2022-10-10T02:59:04.222Z,8.00
2022-10-10T03:01:32.406Z,8.00
2022-10-10T03:04:00.142Z,8.00
2022-10-10T03:06:29.193Z,7.90
2022-10-10T03:08:56.890Z,7.90
2022-10-10T03:11:24.629Z,8.00
2022-10-10T03:13:52.349Z,8.00
2022-10-10T03:16:20.080Z,8.00
2022-10-10T03:18:47.814Z,8.00
2022-10-10T03:21:15.861Z,8.00
2022-10-10T03:23:44.922Z,8.00
2022-10-10T03:26:12.829Z,7.90
2022-10-10T03:28:40.575Z,7.90
2022-10-10T03:31:08.320Z,7.90
2022-10-10T03:33:36.602Z,7.90
2022-10-10T03:36:04.500Z,7.90
2022-10-10T03:38:32.275Z,7.90
2022-10-10T03:41:01.338Z,7.90
2022-10-10T03:43:29.080Z,7.90
2022-10-10T03:45:56.795Z,7.90
2022-10-10T03:48:24.521Z,7.90
2022-10-10T03:50:52.240Z,7.90
2022-10-10T03:53:20.087Z,7.80
2022-10-10T03:55:47.805Z,7.80
2022-10-10T03:58:20.150Z,7.80
2022-10-10T04:00:55.861Z,7.80
2022-10-10T04:03:23.654Z,7.70
2022-10-10T04:05:51.629Z,7.70
2022-10-10T04:08:19.843Z,7.70
2022-10-10T04:10:49.230Z,7.70
2022-10-10T04:13:18.440Z,7.70
2022-10-10T04:15:46.223Z,7.70
2022-10-10T04:18:13.959Z,7.70
2022-10-10T04:20:41.659Z,7.70
2022-10-10T04:23:09.350Z,7.70
2022-10-10T04:25:37.068Z,7.60
2022-10-10T04:28:04.821Z,7.70
2022-10-10T04:30:35.318Z,7.60
2022-10-10T04:33:02.990Z,7.60
2022-10-10T04:35:30.682Z,7.60
2022-10-10T04:37:58.658Z,7.60
2022-10-10T04:40:26.936Z,7.60
2022-10-10T04:42:55.763Z,7.60
2022-10-10T04:45:26.410Z,7.60
2022-10-10T04:47:55.683Z,7.60
2022-10-10T04:50:23.873Z,7.60
2022-10-10T04:52:51.898Z,7.50
2022-10-10T04:55:19.885Z,7.50
2022-10-10T04:57:47.698Z,7.50
2022-10-10T05:00:15.828Z,7.50
2022-10-10T05:02:43.608Z,7.50
2022-10-10T05:05:12.679Z,7.50
2022-10-10T05:07:40.421Z,7.40
2022-10-10T05:10:08.898Z,7.40
2022-10-10T05:12:36.650Z,7.40
2022-10-10T05:15:04.728Z,7.40
2022-10-10T05:17:32.422Z,7.30
2022-10-10T05:20:00.234Z,7.30
2022-10-10T05:22:29.308Z,7.30
2022-10-10T05:24:59.225Z,7.30
2022-10-10T05:27:27.013Z,7.30
2022-10-10T05:29:55.597Z,7.30
2022-10-10T05:32:23.473Z,7.20
2022-10-10T05:34:51.268Z,7.20
2022-10-10T05:37:19.413Z,7.20
2022-10-10T05:39:53.675Z,7.20
2022-10-10T05:42:22.170Z,7.10
2022-10-10T05:44:49.928Z,7.10
2022-10-10T05:47:17.893Z,7.10
2022-10-10T05:49:45.721Z,7.10
2022-10-10T05:52:13.472Z,7.10
2022-10-10T05:54:41.177Z,7.10
2022-10-10T05:57:15.400Z,7.10
2022-10-10T05:59:44.002Z,7.20
2022-10-10T06:02:13.301Z,7.20
2022-10-10T06:04:41.138Z,7.20
2022-10-10T06:07:09.514Z,7.30
2022-10-10T06:09:37.412Z,7.30
2022-10-10T06:12:05.111Z,7.30
2022-10-10T06:14:34.192Z,7.50
2022-10-10T06:17:01.908Z,7.50
2022-10-10T06:19:29.752Z,7.50
2022-10-10T06:21:57.447Z,7.50
2022-10-10T06:24:25.226Z,7.50
2022-10-10T06:26:53.073Z,7.60
2022-10-10T06:29:20.961Z,7.60
2022-10-10T06:31:50.066Z,7.60
2022-10-10T06:34:17.829Z,7.60
2022-10-10T06:36:45.651Z,7.60
2022-10-10T06:39:13.394Z,7.60
2022-10-10T06:41:41.102Z,7.60
2022-10-10T06:44:08.917Z,7.70
2022-10-10T06:46:37.300Z,7.70
2022-10-10T06:49:06.599Z,7.80
2022-10-10T06:51:34.349Z,7.80
2022-10-10T06:54:02.137Z,7.80
2022-10-10T06:56:29.918Z,7.90
2022-10-10T06:58:57.689Z,8.00
2022-10-10T07:01:27.131Z,8.00
2022-10-10T07:03:54.960Z,8.00
2022-10-10T07:06:24.129Z,8.00
2022-10-10T07:08:51.849Z,8.10
2022-10-10T07:11:19.639Z,8.10
2022-10-10T07:13:47.381Z,8.20
2022-10-10T07:16:15.196Z,8.20
2022-10-10T07:18:43.046Z,8.30
2022-10-10T07:21:11.358Z,8.40
2022-10-10T07:23:40.800Z,8.50
2022-10-10T07:26:11.381Z,8.50
2022-10-10T07:28:39.207Z,8.60
2022-10-10T07:31:08.425Z,8.60
2022-10-10T07:33:38.281Z,8.70
2022-10-10T07:36:06.687Z,8.70
2022-10-10T07:38:34.443Z,8.80
2022-10-10T07:41:07.309Z,8.90
2022-10-10T07:43:35.546Z,9.00
2022-10-10T07:46:04.860Z,9.00
2022-10-10T07:48:34.734Z,9.10
2022-10-10T07:51:06.477Z,9.20
2022-10-10T07:53:34.220Z,9.30
2022-10-10T07:56:05.136Z,9.30
2022-10-10T07:58:33.716Z,9.30
2022-10-10T08:01:05.216Z,9.40
2022-10-10T08:03:33.266Z,9.50
2022-10-10T08:06:04.362Z,9.60
2022-10-10T08:08:34.354Z,9.70
2022-10-10T08:11:05.293Z,9.80
2022-10-10T08:13:33.034Z,9.80
2022-10-10T08:16:00.798Z,9.80
2022-10-10T08:18:28.507Z,9.90
2022-10-10T08:21:00.311Z,10.00
2022-10-10T08:23:28.076Z,10.10
2022-10-10T08:25:58.757Z,10.20
2022-10-10T08:28:28.082Z,10.30
2022-10-10T08:30:56.693Z,10.30
2022-10-10T08:33:27.326Z,10.40
2022-10-10T08:35:55.116Z,10.40
2022-10-10T08:38:22.839Z,10.50
2022-10-10T08:40:54.419Z,10.50
2022-10-10T08:43:29.833Z,10.60
2022-10-10T08:46:01.115Z,10.70
2022-10-10T08:48:31.902Z,10.80
2022-10-10T08:51:04.367Z,10.90
2022-10-10T08:53:37.209Z,11.00
2022-10-10T08:56:08.002Z,11.10
2022-10-10T08:58:39.756Z,11.10
2022-10-10T09:01:15.809Z,11.20
2022-10-10T09:03:47.801Z,11.30
2022-10-10T09:06:30.216Z,11.40
2022-10-10T09:09:08.512Z,11.50
2022-10-10T09:11:47.480Z,11.50
2022-10-10T09:14:26.194Z,11.60
2022-10-10T09:17:00.778Z,11.70
2022-10-10T09:19:40.278Z,11.70
2022-10-10T09:22:14.331Z,11.90
2022-10-10T09:24:48.394Z,11.90
2022-10-10T09:27:20.040Z,12.00
2022-10-10T09:29:52.601Z,12.10
2022-10-10T09:32:26.652Z,12.10
2022-10-10T09:34:59.646Z,12.30
2022-10-10T09:37:46.714Z,12.40
2022-10-10T09:40:23.328Z,12.50
2022-10-10T09:42:51.226Z,12.50
2022-10-10T09:45:21.717Z,12.70
2022-10-10T09:47:55.148Z,12.70
2022-10-10T09:50:24.376Z,12.80
2022-10-10T09:52:53.394Z,12.90
2022-10-10T09:55:30.943Z,13.00
2022-10-10T09:58:04.029Z,13.10
2022-10-10T10:00:37.284Z,13.10
2022-10-10T10:03:12.546Z,13.10
2022-10-10T10:05:42.674Z,13.20
2022-10-10T10:08:22.878Z,13.40
2022-10-10T10:10:50.787Z,13.50
2022-10-10T10:13:25.114Z,13.60
2022-10-10T10:15:59.577Z,13.70
2022-10-10T10:18:29.968Z,13.70
2022-10-10T10:21:21.351Z,13.90
2022-10-10T10:23:55.650Z,13.90
2022-10-10T10:26:27.268Z,13.90
2022-10-10T10:28:57.545Z,13.90
2022-10-10T10:31:44.556Z,14.00
2022-10-10T10:34:31.235Z,14.00
2022-10-10T10:37:12.652Z,14.20
2022-10-10T10:39:51.317Z,14.20
2022-10-10T10:42:34.376Z,14.20
2022-10-10T10:45:07.909Z,14.30
2022-10-10T10:47:48.673Z,14.40
2022-10-10T10:50:30.795Z,14.50
2022-10-10T10:53:03.001Z,14.50
2022-10-10T10:55:39.623Z,14.60
2022-10-10T11:01:51.746Z,14.80
2022-10-10T11:05:20.137Z,14.90
2022-10-10T11:07:21.590Z,15.00
2022-10-10T11:09:56.566Z,15.00
2022-10-10T11:12:40.279Z,15.00
2022-10-10T11:15:15.672Z,15.10
2022-10-10T11:17:46.384Z,15.30
2022-10-10T11:20:22.791Z,15.40
2022-10-10T11:22:57.557Z,15.50
2022-10-10T11:25:29.014Z,15.60
2022-10-10T11:28:04.358Z,15.70
2022-10-10T11:30:35.570Z,15.90
2022-10-10T11:33:11.065Z,15.90
2022-10-10T11:35:45.231Z,16.00
2022-10-10T11:38:21.897Z,16.10
2022-10-10T11:40:55.896Z,16.20
2022-10-10T11:43:34.883Z,16.20
2022-10-10T11:46:09.747Z,16.30
2022-10-10T11:48:46.553Z,16.50
2022-10-10T11:51:23.541Z,16.50
2022-10-10T11:53:57.233Z,16.40
2022-10-10T11:56:33.076Z,16.50
2022-10-10T11:59:07.747Z,16.60
2022-10-10T12:01:41.946Z,16.70
2022-10-10T12:04:09.685Z,16.80
2022-10-10T12:06:41.145Z,16.90
2022-10-10T12:09:14.846Z,17.00
2022-10-10T12:11:47.511Z,17.10
2022-10-10T12:14:19.528Z,17.20
2022-10-10T12:16:48.015Z,17.30
2022-10-10T12:19:19.590Z,17.50
2022-10-10T12:21:56.674Z,17.70
2022-10-10T12:24:26.723Z,17.80
2022-10-10T12:27:29.040Z,18.00
2022-10-10T12:30:17.776Z,17.90
2022-10-10T12:32:46.931Z,17.90
2022-10-10T12:35:44.084Z,17.90
2022-10-10T12:38:23.541Z,17.80
2022-10-10T12:41:22.573Z,17.80
2022-10-10T12:43:52.674Z,18.00
2022-10-10T12:46:38.301Z,18.10
2022-10-10T12:49:18.620Z,18.10
2022-10-10T12:51:59.516Z,18.00
2022-10-10T12:54:32.879Z,17.80
2022-10-10T12:57:10.065Z,17.70
2022-10-10T12:59:39.463Z,17.70
2022-10-10T13:02:14.404Z,17.70
2022-10-10T13:04:45.359Z,17.60
2022-10-10T13:07:17.520Z,17.40
2022-10-10T13:09:47.384Z,17.30
2022-10-10T13:12:26.263Z,17.30
2022-10-10T13:14:54.260Z,17.30
2022-10-10T13:17:24.731Z,17.30
2022-10-10T13:19:53.527Z,17.20
2022-10-10T13:22:22.373Z,17.20
2022-10-10T13:24:51.259Z,17.20
2022-10-10T13:27:22.359Z,17.20
2022-10-10T13:29:52.514Z,17.20
2022-10-10T13:32:23.468Z,17.20
2022-10-10T13:34:54.733Z,17.10
2022-10-10T13:37:22.836Z,17.10
2022-10-10T13:39:51.637Z,17.10
2022-10-10T13:42:32.664Z,17.10
2022-10-10T13:45:03.671Z,17.10
2022-10-10T13:47:50.172Z,17.10
2022-10-10T13:50:27.435Z,17.10
2022-10-10T13:53:24.044Z,17.10
2022-10-10T13:55:52.877Z,17.10
2022-10-10T13:58:20.812Z,17.00
2022-10-10T14:00:57.851Z,17.00
2022-10-10T14:03:26.710Z,16.90
2022-10-10T14:05:54.559Z,16.90
2022-10-10T14:08:27.383Z,16.80
2022-10-10T14:11:01.352Z,16.80
2022-10-10T14:13:31.454Z,16.80
2022-10-10T14:16:13.333Z,16.80
2022-10-10T14:18:41.065Z,16.70
2022-10-10T14:21:09.430Z,16.80
2022-10-10T14:23:38.287Z,16.80
2022-10-10T14:26:07.919Z,16.70
2022-10-10T14:28:39.691Z,16.70
2022-10-10T14:31:07.734Z,16.70
2022-10-10T14:33:37.103Z,16.80
2022-10-10T14:36:05.882Z,16.90
2022-10-10T14:38:34.038Z,16.80
2022-10-10T14:41:02.576Z,16.80
2022-10-10T14:43:30.568Z,16.70
2022-10-10T14:45:58.398Z,16.70
2022-10-10T14:48:26.107Z,16.80
2022-10-10T14:50:55.400Z,16.70
2022-10-10T14:53:23.227Z,16.80
2022-10-10T14:55:55.930Z,16.70
2022-10-10T14:58:24.166Z,16.80
2022-10-10T15:00:52.845Z,16.90
2022-10-10T15:03:20.986Z,16.90
2022-10-10T15:05:49.322Z,17.00
2022-10-10T15:08:19.635Z,17.00
2022-10-10T15:10:48.138Z,17.00
2022-10-10T15:13:17.365Z,17.00
2022-10-10T15:15:45.301Z,17.00
2022-10-10T15:18:40.864Z,17.00
2022-10-10T15:21:02.988Z,17.00
2022-10-10T15:23:32.223Z,17.00
2022-10-10T15:26:01.117Z,17.00
2022-10-10T15:28:28.881Z,17.00
2022-10-10T15:30:56.676Z,17.00
2022-10-10T15:33:24.383Z,17.00
2022-10-10T15:36:09.194Z,16.90
2022-10-10T15:38:39.476Z,16.90
2022-10-10T15:41:09.994Z,16.90
2022-10-10T15:43:44.415Z,17.00
2022-10-10T15:46:17.232Z,17.00
2022-10-10T15:48:45.125Z,17.00
2022-10-10T15:51:13.718Z,17.00
2022-10-10T15:53:42.935Z,17.00
2022-10-10T15:56:12.791Z,16.90
2022-10-10T15:58:41.380Z,16.90
2022-10-10T16:01:13.808Z,16.90
2022-10-10T16:03:42.240Z,16.90
2022-10-10T16:06:10.758Z,16.90
2022-10-10T16:08:39.755Z,16.80
2022-10-10T16:11:10.953Z,16.90
2022-10-10T16:13:39.663Z,16.80
2022-10-10T16:16:09.454Z,16.70
2022-10-10T16:18:40.443Z,16.60
2022-10-10T16:21:09.199Z,16.50
2022-10-10T16:23:37.580Z,16.30
2022-10-10T16:26:08.734Z,16.10
2022-10-10T16:28:36.894Z,16.10
2022-10-10T16:31:05.641Z,16.10
2022-10-10T16:33:34.235Z,15.90
2022-10-10T16:36:02.271Z,15.70
2022-10-10T16:38:29.978Z,15.60
2022-10-10T16:41:02.145Z,15.50
2022-10-10T16:43:31.263Z,15.40
2022-10-10T16:46:01.813Z,15.30
2022-10-10T16:48:31.239Z,15.30
2022-10-10T16:51:02.256Z,15.20
2022-10-10T16:53:30.461Z,15.20
2022-10-10T16:55:59.826Z,15.00
2022-10-10T16:58:27.952Z,14.90
2022-10-10T17:00:59.390Z,14.90
2022-10-10T17:03:29.030Z,14.80
2022-10-10T17:06:02.653Z,14.70
2022-10-10T17:08:31.934Z,14.60
2022-10-10T17:11:00.961Z,14.50
2022-10-10T17:13:30.570Z,14.40
2022-10-10T17:16:21.774Z,14.40
2022-10-10T17:18:47.431Z,14.30
2022-10-10T17:21:18.771Z,14.40
2022-10-10T17:23:46.702Z,14.30
2022-10-10T17:26:16.554Z,14.30
2022-10-10T17:28:45.105Z,14.30
2022-10-10T17:31:15.953Z,14.30
2022-10-10T17:33:53.298Z,14.30
2022-10-10T17:36:23.677Z,14.30
2022-10-10T17:38:52.125Z,14.20
2022-10-10T17:41:21.599Z,14.00
2022-10-10T17:43:49.668Z,13.90
2022-10-10T17:46:34.427Z,13.70
2022-10-10T17:49:03.867Z,13.60
2022-10-10T17:51:31.632Z,13.40
2022-10-10T17:54:00.737Z,13.30
2022-10-10T17:56:29.152Z,13.10
2022-10-10T17:58:59.299Z,13.00
2022-10-10T18:01:28.882Z,12.90
2022-10-10T18:03:56.616Z,12.90
2022-10-10T18:06:24.973Z,12.90
2022-10-10T18:08:54.420Z,12.80
2022-10-10T18:11:24.204Z,12.80
2022-10-10T18:13:52.666Z,12.70
2022-10-10T18:16:23.204Z,12.70
2022-10-10T18:18:52.580Z,12.70
2022-10-10T18:21:21.489Z,12.60
2022-10-10T18:23:49.670Z,12.40
2022-10-10T18:26:19.983Z,12.30
2022-10-10T18:28:48.430Z,12.10
2022-10-10T18:31:18.025Z,12.00
2022-10-10T18:33:45.910Z,11.90
2022-10-10T18:36:16.800Z,11.80
2022-10-10T18:38:44.631Z,11.80
2022-10-10T18:41:15.172Z,11.70
2022-10-10T18:43:44.481Z,11.70
2022-10-10T18:46:14.480Z,11.50
2022-10-10T18:48:43.232Z,11.50
2022-10-10T18:51:15.379Z,11.40
2022-10-10T18:53:44.908Z,11.30
2022-10-10T18:56:14.341Z,11.30
2022-10-10T18:58:42.351Z,11.30
2022-10-10T19:01:13.227Z,11.20
2022-10-10T19:03:43.064Z,11.20
2022-10-10T19:06:12.982Z,11.10
2022-10-10T19:08:43.099Z,11.10
2022-10-10T19:11:20.026Z,11.10
2022-10-10T19:13:47.747Z,11.00
2022-10-10T19:16:15.818Z,11.00
2022-10-10T19:18:43.597Z,11.00
2022-10-10T19:21:11.856Z,10.90
2022-10-10T19:23:39.745Z,10.90
2022-10-10T19:26:11.747Z,10.90
2022-10-10T19:28:40.178Z,10.80
2022-10-10T19:31:09.433Z,10.80
2022-10-10T19:33:37.571Z,10.90
2022-10-10T19:36:09.204Z,11.00
2022-10-10T19:38:38.599Z,10.90
2022-10-10T19:41:08.969Z,10.90
2022-10-10T19:43:37.097Z,10.90
2022-10-10T19:46:06.868Z,10.80
2022-10-10T19:48:36.902Z,10.80
2022-10-10T19:51:05.567Z,10.80
2022-10-10T19:53:35.882Z,10.80
2022-10-10T19:56:07.028Z,10.70
2022-10-10T19:58:37.144Z,10.80
2022-10-10T20:01:08.051Z,10.70
2022-10-10T20:03:36.448Z,10.70
2022-10-10T20:06:05.430Z,10.70
2022-10-10T20:08:34.190Z,10.70
2022-10-10T20:11:02.470Z,10.70
2022-10-10T20:13:30.540Z,10.70
2022-10-10T20:16:03.479Z,10.70
2022-10-10T20:18:33.487Z,10.60
2022-10-10T20:21:01.377Z,10.60
2022-10-10T20:23:29.133Z,10.60
2022-10-10T20:25:57.141Z,10.60
2022-10-10T20:28:25.017Z,10.60
2022-10-10T20:30:52.917Z,10.60
2022-10-10T20:33:22.640Z,10.50
2022-10-10T20:35:55.224Z,10.50
2022-10-10T20:38:23.972Z,10.50
2022-10-10T20:40:51.733Z,10.50
2022-10-10T20:43:19.430Z,10.40
2022-10-10T20:45:47.134Z,10.40
2022-10-10T20:48:14.964Z,10.40
2022-10-10T20:50:44.043Z,10.40
2022-10-10T20:53:12.574Z,10.40
2022-10-10T20:55:40.286Z,10.40
2022-10-10T20:58:08.043Z,10.40
2022-10-10T21:00:37.559Z,10.40
2022-10-10T21:03:05.245Z,10.30
2022-10-10T21:05:32.935Z,10.30
2022-10-10T21:08:02.067Z,10.20
2022-10-10T21:10:30.016Z,10.20
2022-10-10T21:12:57.838Z,10.20
2022-10-10T21:15:25.505Z,10.20
2022-10-10T21:17:53.958Z,10.10
2022-10-10T21:20:21.653Z,10.10
2022-10-10T21:22:49.670Z,10.10
2022-10-10T21:25:18.756Z,10.10
2022-10-10T21:27:49.238Z,10.10
2022-10-10T21:30:17.056Z,10.10
2022-10-10T21:32:44.734Z,10.10
2022-10-10T21:35:12.487Z,10.10
2022-10-10T21:37:40.296Z,10.10
2022-10-10T21:40:09.374Z,10.20
2022-10-10T21:42:38.511Z,10.10
2022-10-10T21:45:07.456Z,10.10
2022-10-10T21:47:35.157Z,10.00
2022-10-10T21:50:02.895Z,10.10
2022-10-10T21:52:30.650Z,10.10
2022-10-10T21:54:58.318Z,10.10
2022-10-10T21:57:26.939Z,10.20
2022-10-10T21:59:56.066Z,10.20
2022-10-10T22:02:23.750Z,10.20
2022-10-10T22:04:51.684Z,10.10
2022-10-10T22:07:19.397Z,10.10
2022-10-10T22:09:47.350Z,10.10
2022-10-10T22:12:16.457Z,10.10
2022-10-10T22:14:44.208Z,10.10
2022-10-10T22:17:13.320Z,10.00
2022-10-10T22:19:41.193Z,10.00
2022-10-10T22:22:08.894Z,10.00
2022-10-10T22:24:37.441Z,10.00
2022-10-10T22:27:05.140Z,10.00
2022-10-10T22:29:32.864Z,9.90
2022-10-10T22:32:00.562Z,9.90
2022-10-10T22:34:29.627Z,9.90
2022-10-10T22:36:57.489Z,9.90
2022-10-10T22:39:28.705Z,9.90
2022-10-10T22:41:56.481Z,9.90
2022-10-10T22:44:24.247Z,9.90
2022-10-10T22:46:51.991Z,9.90
2022-10-10T22:49:19.922Z,9.90
2022-10-10T22:51:48.977Z,9.90
2022-10-10T22:54:16.696Z,9.80
2022-10-10T22:56:44.495Z,9.80
2022-10-10T22:59:12.243Z,9.80
2022-10-10T23:01:39.947Z,9.80
2022-10-10T23:04:13.168Z,9.80
2022-10-10T23:06:41.396Z,9.80
2022-10-10T23:09:12.566Z,9.70
2022-10-10T23:11:40.232Z,9.70
2022-10-10T23:14:08.000Z,9.70
2022-10-10T23:16:39.686Z,9.70
2022-10-10T23:19:08.443Z,9.70
2022-10-10T23:21:36.152Z,9.80
2022-10-10T23:24:03.935Z,9.80
2022-10-10T23:26:33.651Z,9.80
2022-10-10T23:29:01.362Z,9.80
2022-10-10T23:31:29.126Z,9.80
2022-10-10T23:33:56.849Z,9.80
2022-10-10T23:36:24.556Z,9.80
2022-10-10T23:38:52.248Z,9.80
2022-10-10T23:41:19.977Z,9.80
2022-10-10T23:43:49.020Z,9.80
2022-10-10T23:46:16.868Z,9.80
2022-10-10T23:48:44.633Z,9.80
2022-10-10T23:51:12.934Z,9.80
2022-10-10T23:53:40.632Z,9.80
2022-10-10T23:56:09.193Z,9.80
2022-10-10T23:58:37.430Z,9.80
